Big Horn, WY

11:39 AM MDT on September 30, 2014 (GMT -0600)
Johnson County | Change Station
CLOSE
Current Station
Airport
Location: Buffalo,
Elevation: 4967 ft
Nearby Weather Stations

Elev 4967 ft 44.38 °N, 106.72 °W | Updated 46 minutes ago

Overcast
Overcast
57 °F
Feels Like 57 °F
N
14
Wind Variable Wind from NNW
Gusts 29 mph

Today
High -- | Low -- °F
--% Chance of Precip.
Yesterday
High -- | Low -- °F
Precip. -- in
7:04 AM 6:50 PM
Waxing Crescent, 38% visible
Pressure 29.64 in
Visibility 10.0 miles
Clouds Few 7000 ft
Scattered Clouds 9500 ft
Dew Point 43 °F
Humidity 59%
Rainfall 0.00 in
Snow Depth 1 in , 2 in , 0 in
UV 4 out of 12
Pollen 2.70 out of 12
Air Quality Not available.
Flu Activity Not available.
METAR KBYG 301653Z AUTO 34012G25KT 10SM FEW070 SCT095 14/06 A2974 RMK AO2 PK WND 35030/1631 SLP036 T01390061

More Conditions Fewer Conditions

Pressure 29.64 in
Visibility 10.0 miles
Clouds Few 7000 ft
Scattered Clouds 9500 ft
Dew Point 43 °F
Humidity 59%
Rainfall 0.00 in
Snow Depth 1 in , 2 in , 0 in
UV 4 out of 12
Pollen 2.70 out of 12
Air Quality Not available.
Flu Activity Not available.
METAR KBYG 301653Z AUTO 34012G25KT 10SM FEW070 SCT095 14/06 A2974 RMK AO2 PK WND 35030/1631 SLP036 T01390061

More Conditions Fewer Conditions

10-Day Weather Forecast

Almanac

Astronomy

Sep. 30, 2014 Rise Set
Actual Time 7:04 AM MDT 6:50 PM MDT
Civil Twilight 6:35 AM MDT 7:19 PM MDT
Nautical Twilight 6:01 AM MDT 7:53 PM MDT
Astronomical Twilight 5:27 AM MDT 8:27 PM MDT
Moon 1:26 PM MDT 11:12 PM MDT
Length of Visible Light 12h 43m
Length of Day
11h 45m
Tomorrow will be 3m 4s shorter.
Waxing Crescent, 38% of the Moon is Illuminated
Today
Waxing Crescent
Oct 1
First Quarter
Oct 8
Full
Oct 15
Last Quarter
Oct 23
New

Today's Extremes

State Highs State Lows

Community

WunderPhotos

Upload Photos

1,757,692 photos uploaded!

Nearby

Snow Depth

Station Depth Elevation
Little Warm 1 in 9370 ft
Cinnabar Park 2 in 9690 ft
Townsend Creek 0 in 8700 ft
Kelley R.S. 0 in 8180 ft
Sage Creek Basin 0 in 7850 ft

Earthquake Activity

City Distance Mag. Time & Date
No recent earthquake activity has been reported nearby.
Minimum magnitude displayed is 2.5.

Coastal Water Temperatures

Place Temperature
No Stations Reporting

Nearby Weather Stations